Time;durP1;ratioP1;P1;durP2;ratioP2;P2;SDS_P1;SDS_P2;PMS_P1;PMS_P2;Temp;Humidity;BMP_temperature;BMP_pressure;BME280_temperature;BME280_humidity;BME280_pressure;Samples;Min_cycle;Max_cycle;Signal;HPM_P1;HPM_P2
2022/11/27 00:00:35;;;;;;;15.90;8.40;;;7.30;99.90;;;;;;5055042;28;20033;-67
2022/11/27 00:03:01;;;;;;;10.48;7.57;;;7.20;99.90;;;;;;5054598;28;20032;-67
2022/11/27 00:05:26;;;;;;;13.57;8.50;;;7.20;99.90;;;;;;5054970;28;20378;-67
2022/11/27 00:07:52;;;;;;;14.63;8.32;;;7.20;99.90;;;;;;5054862;28;20061;-67
2022/11/27 00:10:18;;;;;;;16.13;8.45;;;7.20;99.90;;;;;;5055575;28;20446;-67
2022/11/27 00:12:43;;;;;;;14.70;8.75;;;7.10;99.90;;;;;;5054607;28;20057;-67
2022/11/27 00:15:09;;;;;;;18.20;9.25;;;7.10;99.90;;;;;;5054668;28;20032;-67
2022/11/27 00:17:35;;;;;;;14.48;8.13;;;7.10;99.90;;;;;;5055112;28;20033;-67
2022/11/27 00:20:00;;;;;;;13.48;9.15;;;7.00;99.90;;;;;;5054231;28;20033;-67
2022/11/27 00:22:26;;;;;;;16.00;9.00;;;6.90;99.90;;;;;;5054573;28;20025;-67
2022/11/27 00:24:52;;;;;;;13.68;8.25;;;6.90;99.90;;;;;;5054444;28;20029;-67
2022/11/27 00:27:18;;;;;;;15.65;9.60;;;6.90;99.90;;;;;;5055000;28;20033;-67
2022/11/27 00:29:44;;;;;;;13.40;9.10;;;6.80;99.90;;;;;;5054368;28;20507;-67
2022/11/27 00:32:09;;;;;;;15.75;9.77;;;6.80;99.90;;;;;;5054174;28;20021;-68
2022/11/27 00:34:35;;;;;;;17.33;9.40;;;6.80;99.90;;;;;;5054258;28;20458;-68
2022/11/27 00:37:01;;;;;;;14.43;9.15;;;6.70;99.90;;;;;;5053940;28;20482;-68
2022/11/27 00:39:26;;;;;;;12.35;9.73;;;6.70;99.90;;;;;;5054304;28;20036;-68
2022/11/27 00:41:53;;;;;;;16.60;10.52;;;6.70;99.90;;;;;;5053839;28;20029;-68
2022/11/27 00:44:19;;;;;;;15.27;9.95;;;6.60;99.90;;;;;;5052991;28;20052;-68
2022/11/27 00:46:45;;;;;;;16.27;9.68;;;6.60;99.90;;;;;;5054214;28;20492;-71
2022/11/27 00:49:13;;;;;;;23.10;10.88;;;6.50;99.90;;;;;;5054112;28;20104;-68
2022/11/27 00:51:39;;;;;;;19.23;9.80;;;6.50;99.90;;;;;;5054160;28;20071;-67
2022/11/27 00:54:04;;;;;;;16.60;10.27;;;6.50;99.90;;;;;;5053449;28;20067;-67
2022/11/27 00:56:33;;;;;;;18.40;9.18;;;6.50;99.90;;;;;;5054178;28;20454;-67
2022/11/27 00:58:59;;;;;;;15.50;9.68;;;6.40;99.90;;;;;;5053273;28;20481;-67
2022/11/27 01:01:29;;;;;;;15.73;10.10;;;6.40;99.90;;;;;;5053946;28;20132;-66
2022/11/27 01:03:56;;;;;;;18.13;9.60;;;6.40;99.90;;;;;;5053198;28;20029;-67
2022/11/27 01:06:23;;;;;;;14.50;9.50;;;6.40;99.90;;;;;;5054375;28;20032;-66
2022/11/27 01:08:49;;;;;;;15.88;9.45;;;6.50;99.90;;;;;;5053340;28;20028;-67
2022/11/27 01:11:21;;;;;;;14.15;9.15;;;6.50;99.90;;;;;;5053965;28;20017;-67
2022/11/27 01:13:47;;;;;;;17.70;9.20;;;6.50;99.90;;;;;;5053235;28;20471;-68
2022/11/27 01:16:15;;;;;;;16.55;9.15;;;6.50;99.90;;;;;;5053809;28;20056;-67
2022/11/27 01:18:42;;;;;;;14.15;8.82;;;6.50;99.90;;;;;;5053728;28;20499;-67
2022/11/27 01:21:09;;;;;;;15.48;8.10;;;6.50;99.90;;;;;;5053482;28;20025;-66
2022/11/27 01:23:35;;;;;;;14.70;7.70;;;6.50;99.90;;;;;;5053416;28;20036;-67
2022/11/27 01:26:02;;;;;;;13.23;7.70;;;6.60;99.90;;;;;;5052920;28;20100;-68
2022/11/27 01:28:28;;;;;;;12.10;7.00;;;6.60;99.90;;;;;;5053737;28;20025;-67
2022/11/27 01:30:54;;;;;;;11.38;6.57;;;6.60;99.90;;;;;;5053216;28;20424;-68
2022/11/27 01:33:20;;;;;;;12.32;6.85;;;6.70;99.90;;;;;;5053982;28;20028;-67
2022/11/27 01:35:57;;;;;;;14.43;7.25;;;6.70;99.90;;;;;;5053458;28;20103;-67
2022/11/27 01:38:24;;;;;;;15.60;8.90;;;6.70;99.90;;;;;;5053385;28;20126;-69
2022/11/27 01:41:03;;;;;;;17.70;8.00;;;6.80;99.90;;;;;;5053012;28;20037;-68
2022/11/27 01:43:54;;;;;;;12.95;7.90;;;6.80;99.90;;;;;;5053206;28;20069;-67
2022/11/27 01:46:31;;;;;;;13.47;8.40;;;6.70;99.90;;;;;;5053529;28;20328;-67
2022/11/27 01:49:09;;;;;;;12.48;8.52;;;6.80;99.90;;;;;;5052855;28;20262;-66
2022/11/27 01:51:41;;;;;;;15.82;8.18;;;6.80;99.90;;;;;;5053100;28;20115;-67
2022/11/27 01:54:09;;;;;;;11.55;7.90;;;6.80;99.90;;;;;;5052397;28;20473;-67
2022/11/27 01:56:36;;;;;;;13.77;8.15;;;6.80;99.90;;;;;;5052870;28;20370;-67
2022/11/27 01:59:02;;;;;;;15.80;9.02;;;6.80;99.90;;;;;;5052606;28;20032;-66
2022/11/27 02:01:28;;;;;;;16.92;8.93;;;6.70;99.90;;;;;;5053120;28;20035;-67
2022/11/27 02:03:58;;;;;;;13.77;8.18;;;6.70;99.90;;;;;;5052931;28;20112;-68
2022/11/27 02:06:24;;;;;;;14.85;8.43;;;6.70;99.90;;;;;;5052881;28;20385;-68
2022/11/27 02:08:51;;;;;;;15.77;9.43;;;6.80;99.90;;;;;;5052565;28;20466;-70
2022/11/27 02:11:31;;;;;;;15.60;9.10;;;6.70;99.90;;;;;;5052606;28;20469;-67
2022/11/27 02:14:10;;;;;;;15.40;8.80;;;6.70;99.90;;;;;;5051756;28;20052;-67
2022/11/27 02:16:50;;;;;;;13.75;8.82;;;6.60;99.90;;;;;;5052705;28;20068;-68
2022/11/27 02:19:38;;;;;;;15.35;8.93;;;6.60;99.90;;;;;;5051529;28;20033;-68
2022/11/27 02:22:24;;;;;;;15.48;9.52;;;6.60;99.90;;;;;;5048741;28;20068;-68
2022/11/27 02:25:06;;;;;;;19.77;9.90;;;6.50;99.90;;;;;;5052630;28;20021;-67
2022/11/27 02:28:23;;;;;;;16.27;8.85;;;6.50;99.90;;;;;;5052613;28;20025;-67
2022/11/27 02:30:55;;;;;;;12.15;8.45;;;6.40;99.90;;;;;;5031062;28;20471;-66
2022/11/27 02:33:22;;;;;;;15.52;9.98;;;6.40;99.90;;;;;;5032605;28;20083;-67
2022/11/27 02:36:02;;;;;;;15.88;9.38;;;6.40;99.90;;;;;;5032053;28;20059;-68
2022/11/27 02:38:34;;;;;;;16.13;9.52;;;6.40;99.90;;;;;;5032299;28;20044;-66
2022/11/27 02:41:06;;;;;;;16.90;10.00;;;6.30;99.90;;;;;;5031762;28;20036;-67
2022/11/27 02:43:41;;;;;;;16.80;10.57;;;6.30;99.90;;;;;;5032262;28;20033;-67
2022/11/27 02:46:09;;;;;;;15.60;10.15;;;6.30;99.90;;;;;;5031919;28;20047;-68
2022/11/27 02:48:41;;;;;;;19.23;10.82;;;6.30;99.90;;;;;;5032404;28;20025;-68
2022/11/27 02:51:08;;;;;;;21.42;11.10;;;6.20;99.90;;;;;;5031976;28;20041;-67
2022/11/27 02:53:41;;;;;;;14.80;10.70;;;6.20;99.90;;;;;;5031908;28;20420;-67
2022/11/27 02:56:11;;;;;;;15.25;9.35;;;6.20;99.90;;;;;;5031906;28;20032;-67
2022/11/27 02:58:38;;;;;;;18.52;11.13;;;6.20;99.90;;;;;;5031804;28;20041;-68
2022/11/27 03:01:05;;;;;;;23.27;10.65;;;6.20;99.90;;;;;;5031907;28;20087;-67
2022/11/27 03:03:38;;;;;;;18.83;10.80;;;6.20;99.90;;;;;;5032345;28;20044;-68
2022/11/27 03:06:14;;;;;;;20.25;11.55;;;6.20;99.90;;;;;;5031929;28;20052;-67
2022/11/27 03:08:58;;;;;;;20.13;11.02;;;6.10;99.90;;;;;;5032268;28;20040;-67
2022/11/27 03:11:24;;;;;;;17.02;11.25;;;6.10;99.90;;;;;;5032168;28;20052;-67
2022/11/27 03:13:56;;;;;;;17.25;10.85;;;6.10;99.90;;;;;;5032266;28;20055;-67
2022/11/27 03:16:43;;;;;;;16.13;10.30;;;6.00;99.90;;;;;;5031894;28;20448;-67
2022/11/27 03:19:15;;;;;;;17.75;11.63;;;6.10;99.90;;;;;;5045139;28;20534;-68
2022/11/27 03:22:02;;;;;;;16.27;11.05;;;6.10;99.90;;;;;;5052134;28;20029;-68
2022/11/27 03:24:31;;;;;;;22.23;11.57;;;6.10;99.90;;;;;;5051641;28;20029;-67
2022/11/27 03:26:57;;;;;;;19.30;10.50;;;6.00;99.90;;;;;;5054086;28;20359;-67
2022/11/27 03:30:03;;;;;;;17.50;10.43;;;6.00;99.90;;;;;;5055885;28;20531;-67
2022/11/27 03:32:31;;;;;;;16.85;11.15;;;6.00;99.90;;;;;;5053471;28;20543;-68
2022/11/27 03:34:56;;;;;;;18.75;11.20;;;6.00;99.90;;;;;;5055358;28;20402;-69
2022/11/27 03:37:23;;;;;;;20.70;11.57;;;6.00;99.90;;;;;;5055688;28;20025;-68
2022/11/27 03:39:49;;;;;;;18.08;11.75;;;6.00;99.90;;;;;;5055756;28;20033;-67
2022/11/27 03:42:18;;;;;;;17.40;11.57;;;5.90;99.90;;;;;;5055095;28;20108;-68
2022/11/27 03:44:56;;;;;;;22.42;11.85;;;5.90;99.90;;;;;;5055608;28;20032;-68
2022/11/27 03:47:48;;;;;;;19.00;11.05;;;5.90;99.90;;;;;;5054909;28;20460;-68
2022/11/27 03:50:32;;;;;;;;;;;5.90;99.90;;;;;;5055303;28;20025;-68
2022/11/27 03:53:18;;;;;;;18.27;11.40;;;5.80;99.90;;;;;;5054769;28;19911;-72
2022/11/27 03:56:15;;;;;;;18.10;11.38;;;5.80;99.90;;;;;;5055601;28;20017;-68
2022/11/27 03:58:51;;;;;;;19.23;11.80;;;5.80;99.90;;;;;;5054390;28;20048;-68
2022/11/27 04:01:20;;;;;;;22.75;12.05;;;5.80;99.90;;;;;;5054726;28;20032;-68
2022/11/27 04:03:46;;;;;;;20.00;12.70;;;5.70;99.90;;;;;;5055343;28;20048;-68
2022/11/27 04:06:11;;;;;;;21.52;12.48;;;5.70;99.90;;;;;;5054892;28;20036;-69
2022/11/27 04:08:38;;;;;;;22.33;13.02;;;5.70;99.90;;;;;;5055248;28;20025;-68
2022/11/27 04:11:04;;;;;;;18.15;11.45;;;5.70;99.90;;;;;;5054802;28;20100;-66
2022/11/27 04:13:29;;;;;;;17.45;12.13;;;5.70;99.90;;;;;;5054952;28;20116;-67
2022/11/27 04:15:58;;;;;;;19.08;12.18;;;5.70;99.90;;;;;;5054781;28;20120;-67
2022/11/27 04:18:24;;;;;;;19.83;12.07;;;5.60;99.90;;;;;;5054672;28;20527;-67
2022/11/27 04:20:49;;;;;;;19.30;11.63;;;5.60;99.90;;;;;;5054769;28;20037;-68
2022/11/27 04:23:15;;;;;;;22.08;12.23;;;5.60;99.90;;;;;;5054022;28;20074;-68
2022/11/27 04:25:41;;;;;;;20.10;12.25;;;5.70;99.90;;;;;;5054830;28;20393;-67
2022/11/27 04:28:06;;;;;;;20.55;12.38;;;5.60;99.90;;;;;;5053932;28;20082;-67
2022/11/27 04:30:33;;;;;;;20.88;13.15;;;5.60;99.90;;;;;;5054727;28;20036;-67
2022/11/27 04:32:58;;;;;;;24.52;12.50;;;5.60;99.90;;;;;;5053420;28;20151;-67
2022/11/27 04:35:24;;;;;;;21.08;12.32;;;5.60;99.90;;;;;;5054040;28;20139;-67
2022/11/27 04:37:49;;;;;;;19.02;11.32;;;5.60;99.90;;;;;;5052446;28;20114;-67
2022/11/27 04:40:15;;;;;;;18.33;12.35;;;5.60;99.90;;;;;;5053657;28;20040;-67
2022/11/27 04:42:41;;;;;;;21.25;12.35;;;5.60;99.90;;;;;;5054506;28;20033;-66
2022/11/27 04:45:07;;;;;;;22.48;12.32;;;5.60;99.90;;;;;;5054057;28;20044;-67
2022/11/27 04:47:33;;;;;;;19.83;12.93;;;5.50;99.90;;;;;;5054603;28;20025;-67
2022/11/27 04:49:59;;;;;;;18.98;11.70;;;5.50;99.90;;;;;;5054516;28;20381;-67
2022/11/27 04:52:24;;;;;;;19.10;12.35;;;5.60;99.90;;;;;;5053749;28;20461;-67
2022/11/27 04:54:50;;;;;;;18.45;11.73;;;5.60;99.90;;;;;;5054377;28;20032;-67
2022/11/27 04:57:15;;;;;;;19.05;11.77;;;5.60;99.90;;;;;;5053535;28;20432;-67
2022/11/27 04:59:41;;;;;;;19.88;11.52;;;5.60;99.90;;;;;;5054154;28;20059;-67
2022/11/27 05:02:07;;;;;;;20.70;11.80;;;5.60;99.90;;;;;;5053404;28;20071;-67
2022/11/27 05:04:33;;;;;;;19.75;11.00;;;5.60;99.90;;;;;;5053976;28;20115;-67
2022/11/27 05:06:58;;;;;;;17.77;11.50;;;5.60;99.90;;;;;;5053625;28;20047;-66
2022/11/27 05:09:24;;;;;;;16.77;11.38;;;5.60;99.90;;;;;;5053664;28;20033;-67
2022/11/27 05:11:50;;;;;;;15.90;10.43;;;5.60;99.90;;;;;;5053847;28;20033;-67
2022/11/27 05:14:16;;;;;;;16.80;10.65;;;5.60;99.90;;;;;;5053092;28;20025;-68
2022/11/27 05:16:48;;;;;;;19.92;11.40;;;5.70;99.90;;;;;;5053850;28;20021;-67
2022/11/27 05:19:15;;;;;;;19.15;11.13;;;5.70;99.90;;;;;;5053208;28;20033;-68
2022/11/27 05:21:41;;;;;;;17.05;10.82;;;5.70;99.90;;;;;;5053251;28;20017;-68
2022/11/27 05:24:08;;;;;;;16.27;11.05;;;5.70;99.90;;;;;;5053357;28;20025;-68
2022/11/27 05:26:34;;;;;;;16.63;10.90;;;5.70;99.90;;;;;;5052550;28;20151;-68
2022/11/27 05:29:00;;;;;;;17.75;11.32;;;5.70;99.90;;;;;;5052270;28;20128;-67
2022/11/27 05:31:26;;;;;;;19.08;12.27;;;5.70;99.90;;;;;;5053498;28;20036;-67
2022/11/27 05:33:51;;;;;;;19.17;11.93;;;5.70;99.90;;;;;;5053595;28;20024;-68
2022/11/27 05:36:17;;;;;;;24.48;13.07;;;5.70;99.90;;;;;;5053018;28;20094;-68
2022/11/27 05:38:43;;;;;;;24.17;13.85;;;5.60;99.90;;;;;;5051844;28;20029;-67
2022/11/27 05:41:08;;;;;;;21.38;13.45;;;5.60;99.90;;;;;;5052812;28;20033;-68
2022/11/27 05:43:34;;;;;;;21.75;14.13;;;5.60;99.90;;;;;;5053073;28;20078;-68
2022/11/27 05:46:12;;;;;;;22.30;13.43;;;5.60;99.90;;;;;;5053617;28;20025;-68
2022/11/27 05:48:37;;;;;;;22.88;13.98;;;5.50;99.90;;;;;;5053404;28;20140;-68
2022/11/27 05:51:04;;;;;;;21.42;14.25;;;5.40;99.90;;;;;;5053205;28;20039;-68
2022/11/27 05:53:30;;;;;;;21.50;14.48;;;5.40;99.90;;;;;;5052685;28;20082;-68
2022/11/27 05:56:08;;;;;;;24.83;14.50;;;5.40;99.90;;;;;;5053117;28;20142;-67
2022/11/27 05:58:34;;;;;;;27.17;14.98;;;5.40;99.90;;;;;;5052819;28;20076;-68
2022/11/27 06:01:00;;;;;;;25.20;15.90;;;5.40;99.90;;;;;;5053011;28;20134;-68
2022/11/27 06:03:26;;;;;;;28.02;15.68;;;5.40;99.90;;;;;;5052302;28;20691;-67
2022/11/27 06:05:52;;;;;;;27.05;15.55;;;5.40;99.90;;;;;;5052836;28;20127;-68
2022/11/27 06:08:18;;;;;;;27.27;16.13;;;5.40;99.90;;;;;;5052217;28;20099;-67
2022/11/27 06:10:45;;;;;;;25.70;16.33;;;5.30;99.90;;;;;;5052612;28;20464;-67
2022/11/27 06:13:11;;;;;;;26.92;16.25;;;5.30;99.90;;;;;;5051854;28;20359;-67
2022/11/27 06:15:38;;;;;;;25.38;16.20;;;5.30;99.90;;;;;;5053092;28;20102;-67
2022/11/27 06:18:04;;;;;;;31.45;17.38;;;5.30;99.90;;;;;;5051075;28;20496;-67
2022/11/27 06:20:30;;;;;;;28.58;17.42;;;5.30;99.90;;;;;;5052155;28;20025;-66
2022/11/27 06:22:56;;;;;;;29.83;17.40;;;5.30;99.90;;;;;;5052351;28;20028;-68
2022/11/27 06:25:22;;;;;;;30.73;18.23;;;5.30;99.90;;;;;;5051706;28;20125;-67
2022/11/27 06:27:48;;;;;;;32.25;18.67;;;5.30;99.90;;;;;;5052628;28;20107;-68
2022/11/27 06:30:14;;;;;;;29.42;18.83;;;5.30;99.90;;;;;;5052531;28;20454;-68
2022/11/27 06:32:39;;;;;;;30.17;18.63;;;5.20;99.90;;;;;;5052442;28;20373;-68
2022/11/27 06:35:06;;;;;;;32.38;19.35;;;5.30;99.90;;;;;;5053380;28;20099;-68
2022/11/27 06:37:31;;;;;;;31.48;18.42;;;5.30;99.90;;;;;;5052693;28;20334;-68
2022/11/27 06:39:57;;;;;;;32.63;19.08;;;5.30;99.90;;;;;;5053879;28;20087;-67
2022/11/27 06:42:22;;;;;;;31.17;18.73;;;5.30;99.90;;;;;;5053805;28;20029;-67
2022/11/27 06:44:48;;;;;;;30.58;19.23;;;5.30;99.90;;;;;;5053673;28;20099;-67
2022/11/27 06:47:14;;;;;;;34.30;19.00;;;5.30;99.90;;;;;;5053892;28;20025;-67
2022/11/27 06:49:39;;;;;;;36.95;19.25;;;5.30;99.90;;;;;;5052677;28;20062;-67
2022/11/27 06:52:05;;;;;;;32.88;19.77;;;5.40;99.90;;;;;;5052251;28;20044;-67
2022/11/27 06:54:31;;;;;;;42.42;20.92;;;5.40;99.90;;;;;;5051685;28;20033;-67
2022/11/27 06:56:57;;;;;;;41.35;21.38;;;5.40;99.90;;;;;;5051809;28;20454;-68
2022/11/27 06:59:23;;;;;;;34.83;21.20;;;5.50;99.90;;;;;;5051890;28;20033;-68
2022/11/27 07:01:48;;;;;;;36.85;20.27;;;5.50;99.90;;;;;;5051800;28;20021;-67
2022/11/27 07:04:15;;;;;;;31.25;19.05;;;5.50;99.90;;;;;;5051598;28;20036;-68
2022/11/27 07:06:41;;;;;;;31.00;19.70;;;5.50;99.90;;;;;;5052034;28;20411;-68
2022/11/27 07:09:08;;;;;;;38.15;20.42;;;5.60;99.90;;;;;;5052076;28;20036;-68
2022/11/27 07:11:34;;;;;;;27.30;17.30;;;5.60;99.90;;;;;;5051441;28;20025;-67
2022/11/27 07:14:03;;;;;;;29.00;18.38;;;5.70;99.90;;;;;;5051788;28;20104;-68
2022/11/27 07:16:30;;;;;;;34.05;18.83;;;5.70;99.90;;;;;;5050146;28;20029;-68
2022/11/27 07:19:05;;;;;;;32.25;18.25;;;5.70;99.90;;;;;;5051673;28;20029;-68
2022/11/27 07:21:32;;;;;;;31.52;18.40;;;5.70;99.90;;;;;;5051386;28;20470;-68
2022/11/27 07:23:59;;;;;;;31.40;18.67;;;5.80;99.90;;;;;;5051848;28;20029;-68
2022/11/27 07:26:27;;;;;;;27.67;18.70;;;5.80;99.90;;;;;;5051456;28;20036;-68
2022/11/27 07:28:53;;;;;;;32.78;18.67;;;5.90;99.90;;;;;;5051658;28;20462;-67
2022/11/27 07:31:28;;;;;;;35.30;17.77;;;5.90;99.90;;;;;;5050924;28;20033;-68
2022/11/27 07:33:55;;;;;;;28.70;18.58;;;5.90;99.90;;;;;;5051895;28;20477;-68
2022/11/27 07:36:23;;;;;;;29.52;17.85;;;6.00;99.90;;;;;;5051329;28;20045;-68
2022/11/27 07:38:49;;;;;;;30.90;17.23;;;6.00;99.90;;;;;;5051563;28;20033;-68
2022/11/27 07:41:15;;;;;;;28.83;17.85;;;6.10;99.90;;;;;;5051341;28;20029;-71
2022/11/27 07:43:41;;;;;;;30.42;18.02;;;6.10;99.90;;;;;;5051410;28;20029;-68
2022/11/27 07:46:12;;;;;;;31.23;18.20;;;6.20;99.90;;;;;;5051389;28;20032;-68
2022/11/27 07:48:38;;;;;;;29.83;17.20;;;6.20;99.90;;;;;;5051363;28;20055;-68
2022/11/27 07:51:09;;;;;;;28.52;17.50;;;6.20;99.90;;;;;;5051610;28;20029;-67
2022/11/27 07:53:37;;;;;;;26.40;16.02;;;6.30;99.90;;;;;;5051120;28;20096;-67
2022/11/27 07:56:04;;;;;;;27.55;17.38;;;6.30;99.90;;;;;;5051469;28;20021;-68
2022/11/27 07:58:29;;;;;;;30.02;17.83;;;6.30;99.90;;;;;;5051011;28;20086;-68
2022/11/27 08:00:55;;;;;;;27.10;16.60;;;6.40;99.90;;;;;;5051131;28;20029;-67
2022/11/27 08:03:21;;;;;;;27.38;17.02;;;6.40;99.90;;;;;;5050805;28;20100;-67
2022/11/27 08:05:47;;;;;;;26.48;17.33;;;6.40;99.90;;;;;;5050276;28;20053;-68
2022/11/27 08:08:12;;;;;;;26.83;16.98;;;6.40;99.90;;;;;;5051215;28;20067;-67
2022/11/27 08:10:39;;;;;;;31.77;17.17;;;6.40;99.90;;;;;;5050939;28;20458;-67
2022/11/27 08:13:05;;;;;;;30.48;18.63;;;6.50;99.90;;;;;;5052735;28;20025;-67
2022/11/27 08:15:32;;;;;;;27.42;16.75;;;6.60;99.90;;;;;;5054445;28;20478;-67
2022/11/27 08:17:57;;;;;;;26.15;17.25;;;6.60;99.90;;;;;;5055017;28;20040;-67
2022/11/27 08:20:23;;;;;;;29.23;16.83;;;6.60;99.90;;;;;;5054246;28;20029;-68
2022/11/27 08:22:49;;;;;;;28.35;17.30;;;6.70;99.90;;;;;;5055128;28;20175;-67
2022/11/27 08:25:15;;;;;;;26.13;17.80;;;6.70;99.90;;;;;;5054940;28;20025;-68
2022/11/27 08:27:41;;;;;;;28.33;17.73;;;6.70;99.90;;;;;;5053657;28;20505;-68
2022/11/27 08:30:07;;;;;;;25.65;16.70;;;6.80;99.90;;;;;;5054888;28;20040;-67
2022/11/27 08:32:33;;;;;;;30.25;16.77;;;6.90;99.90;;;;;;5054672;28;20025;-68
2022/11/27 08:34:59;;;;;;;30.83;17.90;;;6.90;99.90;;;;;;5054616;28;20206;-67
2022/11/27 08:37:24;;;;;;;28.55;16.98;;;6.90;99.90;;;;;;5054371;28;20528;-69
2022/11/27 08:39:50;;;;;;;30.13;16.17;;;7.00;99.90;;;;;;5054384;28;20040;-68
2022/11/27 08:42:16;;;;;;;26.65;16.63;;;7.00;99.90;;;;;;5054239;28;20017;-68
2022/11/27 08:44:41;;;;;;;25.52;15.55;;;7.00;99.90;;;;;;5054142;28;20051;-68
2022/11/27 08:47:07;;;;;;;25.00;15.80;;;7.10;99.90;;;;;;5054694;28;20028;-68
2022/11/27 08:49:33;;;;;;;25.92;14.65;;;7.10;99.90;;;;;;5054094;28;20385;-68
2022/11/27 08:51:58;;;;;;;28.15;14.60;;;7.20;99.90;;;;;;5054538;28;20112;-68
2022/11/27 08:54:24;;;;;;;28.85;16.65;;;7.20;99.90;;;;;;5053779;28;20079;-68
2022/11/27 08:56:53;;;;;;;30.27;16.38;;;7.20;99.90;;;;;;5054240;28;20029;-67
2022/11/27 08:59:18;;;;;;;24.77;15.30;;;7.20;99.90;;;;;;5053857;28;20037;-71
2022/11/27 09:01:44;;;;;;;24.73;14.38;;;7.20;99.90;;;;;;5053585;28;20031;-67
2022/11/27 09:04:09;;;;;;;20.35;13.52;;;7.20;99.90;;;;;;5054165;28;20504;-67
2022/11/27 09:06:35;;;;;;;25.13;14.45;;;7.20;99.90;;;;;;5053846;28;20121;-68
2022/11/27 09:09:04;;;;;;;26.23;13.70;;;7.20;99.90;;;;;;5052434;28;20212;-67
2022/11/27 09:11:31;;;;;;;24.77;14.73;;;7.30;99.90;;;;;;5053812;28;20025;-67
2022/11/27 09:14:01;;;;;;;20.95;14.35;;;7.30;99.90;;;;;;5054018;28;20033;-67
2022/11/27 09:16:28;;;;;;;23.38;13.70;;;7.40;99.90;;;;;;5053379;28;20036;-68
2022/11/27 09:18:54;;;;;;;24.40;12.02;;;7.40;99.90;;;;;;5053867;28;20465;-68
2022/11/27 09:21:22;;;;;;;24.83;13.07;;;7.50;99.90;;;;;;5053557;28;20029;-70
2022/11/27 09:23:52;;;;;;;18.95;12.02;;;7.60;99.90;;;;;;5053150;28;20484;-68
2022/11/27 09:26:18;;;;;;;20.52;12.07;;;7.60;99.90;;;;;;5053751;28;20035;-68
2022/11/27 09:28:44;;;;;;;20.70;12.75;;;7.70;99.90;;;;;;5051838;28;20115;-68
2022/11/27 09:31:12;;;;;;;17.80;12.38;;;7.80;99.90;;;;;;5053670;28;20466;-68
2022/11/27 09:33:39;;;;;;;25.90;13.85;;;7.90;99.90;;;;;;5053198;28;20025;-68
2022/11/27 09:36:07;;;;;;;24.70;12.77;;;8.00;99.90;;;;;;5053199;28;20136;-68
2022/11/27 09:38:33;;;;;;;19.38;12.70;;;8.10;99.90;;;;;;5052912;28;20059;-67
2022/11/27 09:41:12;;;;;;;23.00;14.02;;;8.10;99.90;;;;;;5053418;28;20025;-67
2022/11/27 09:43:46;;;;;;;20.05;12.43;;;8.20;99.90;;;;;;5053326;28;20061;-70
2022/11/27 09:46:18;;;;;;;20.67;12.35;;;8.40;99.90;;;;;;5053495;28;20096;-68
2022/11/27 09:48:48;;;;;;;21.02;12.98;;;8.50;99.90;;;;;;5052866;28;20466;-67
2022/11/27 09:51:30;;;;;;;26.10;13.10;;;8.50;99.90;;;;;;5053517;28;20035;-67
2022/11/27 09:54:16;;;;;;;20.27;12.35;;;8.60;99.90;;;;;;5053111;28;20043;-67
2022/11/27 09:56:46;;;;;;;19.73;11.60;;;8.70;99.90;;;;;;5052254;28;20515;-68
2022/11/27 09:59:17;;;;;;;21.83;11.50;;;8.90;99.90;;;;;;5053055;28;20060;-67
2022/11/27 10:01:43;;;;;;;18.73;10.95;;;9.20;99.90;;;;;;5051369;28;20043;-68
2022/11/27 10:04:14;;;;;;;15.63;9.70;;;9.40;99.90;;;;;;5053234;28;20032;-67
2022/11/27 10:06:58;;;;;;;16.88;10.32;;;9.60;99.90;;;;;;5051969;28;20059;-68
2022/11/27 10:09:35;;;;;;;18.50;9.90;;;9.80;99.90;;;;;;5052212;28;20060;-71
2022/11/27 10:12:19;;;;;;;16.63;9.90;;;9.90;99.90;;;;;;5052688;28;20108;-68
2022/11/27 10:14:48;;;;;;;18.40;9.80;;;9.90;99.90;;;;;;5052213;28;20674;-67
2022/11/27 10:17:19;;;;;;;13.25;7.57;;;10.00;99.40;;;;;;5052339;28;20032;-67
2022/11/27 10:20:01;;;;;;;16.23;7.25;;;10.10;99.60;;;;;;5052134;28;20511;-67
2022/11/27 10:22:41;;;;;;;16.30;7.90;;;10.30;96.80;;;;;;5052114;28;20029;-71
2022/11/27 10:25:20;;;;;;;19.55;7.22;;;10.30;96.80;;;;;;5052453;28;20028;-68
2022/11/27 10:28:00;;;;;;;12.93;7.15;;;10.40;95.50;;;;;;5052004;28;20048;-68
2022/11/27 10:30:29;;;;;;;15.02;7.30;;;10.30;94.20;;;;;;5052018;28;20489;-70
2022/11/27 10:32:56;;;;;;;12.38;6.97;;;10.30;94.10;;;;;;5052162;28;20078;-67
2022/11/27 10:35:29;;;;;;;17.50;7.40;;;10.20;92.20;;;;;;5050563;28;20049;-67
2022/11/27 10:38:07;;;;;;;11.43;6.75;;;10.20;94.30;;;;;;5052108;28;20024;-67
2022/11/27 10:40:45;;;;;;;12.85;6.32;;;10.20;93.60;;;;;;5051775;28;20025;-67
2022/11/27 10:43:22;;;;;;;12.82;6.70;;;10.30;92.60;;;;;;5052014;28;20389;-67
2022/11/27 10:45:56;;;;;;;14.30;6.82;;;10.50;92.30;;;;;;5051370;28;20582;-68
2022/11/27 10:48:22;;;;;;;12.45;6.32;;;10.70;92.50;;;;;;5052143;28;20029;-68
2022/11/27 10:50:49;;;;;;;13.73;5.57;;;10.80;92.80;;;;;;5051754;28;20418;-67
2022/11/27 10:53:30;;;;;;;12.73;5.75;;;11.00;92.80;;;;;;5052389;28;20060;-67
2022/11/27 10:56:14;;;;;;;10.07;5.80;;;11.20;92.50;;;;;;5052101;28;20060;-68
2022/11/27 10:58:49;;;;;;;11.05;5.68;;;11.40;91.60;;;;;;5051308;28;20485;-69
2022/11/27 11:01:17;;;;;;;12.45;5.63;;;11.50;87.60;;;;;;5051819;28;20033;-68
2022/11/27 11:03:43;;;;;;;11.50;5.32;;;11.60;84.70;;;;;;5051598;28;20025;-68
2022/11/27 11:06:24;;;;;;;10.13;5.00;;;11.50;83.70;;;;;;5052048;28;20021;-68
2022/11/27 11:09:14;;;;;;;10.57;4.97;;;11.50;81.90;;;;;;5051260;28;20021;-68
2022/11/27 11:11:40;;;;;;;9.68;4.40;;;11.40;79.10;;;;;;5051489;28;20254;-68
2022/11/27 11:14:15;;;;;;;9.95;5.38;;;11.30;78.80;;;;;;5051426;28;20387;-68
2022/11/27 11:16:43;;;;;;;9.73;4.97;;;11.20;79.30;;;;;;5051660;28;20021;-68
2022/11/27 11:19:41;;;;;;;14.13;6.13;;;11.10;79.90;;;;;;5051878;28;20175;-68
2022/11/27 11:22:15;;;;;;;12.10;6.07;;;11.10;81.10;;;;;;5039763;28;20497;-68
2022/11/27 11:24:46;;;;;;;13.00;6.45;;;11.00;80.00;;;;;;5051469;28;20025;-68
2022/11/27 11:27:17;;;;;;;;;;;11.00;81.00;;;;;;5052157;28;20408;-67
2022/11/27 11:29:47;;;;;;;15.57;7.03;;;11.00;80.20;;;;;;5051319;28;19985;-67
2022/11/27 11:32:24;;;;;;;10.18;6.35;;;10.90;82.30;;;;;;5051655;28;20258;-68
2022/11/27 11:35:02;;;;;;;16.90;6.72;;;10.90;83.80;;;;;;5049687;28;20176;-68
2022/11/27 11:37:43;;;;;;;12.65;6.85;;;10.80;83.60;;;;;;5051494;28;20454;-68
2022/11/27 11:40:12;;;;;;;11.50;6.18;;;10.80;84.00;;;;;;5051789;28;20067;-68
2022/11/27 11:42:49;;;;;;;16.02;6.43;;;10.70;83.80;;;;;;5051175;28;20086;-68
2022/11/27 11:45:17;;;;;;;9.57;5.97;;;10.70;83.60;;;;;;5051603;28;20029;-68
2022/11/27 11:47:48;;;;;;;13.30;7.15;;;10.60;83.30;;;;;;5053496;28;20166;-68
2022/11/27 11:50:39;;;;;;;13.43;6.13;;;10.60;84.30;;;;;;5055681;28;20076;-69
2022/11/27 11:53:17;;;;;;;11.98;5.68;;;10.50;81.90;;;;;;5055706;28;20102;-67
2022/11/27 11:56:17;;;;;;;9.65;6.50;;;10.50;84.00;;;;;;5055004;28;20029;-68
2022/11/27 11:59:01;;;;;;;9.93;5.85;;;10.40;84.50;;;;;;5054888;28;20124;-67
2022/11/27 12:01:46;;;;;;;14.23;6.30;;;10.30;85.20;;;;;;5055351;28;20029;-67
2022/11/27 12:04:36;;;;;;;10.25;5.70;;;10.30;85.30;;;;;;5055335;28;20063;-67
2022/11/27 12:07:26;;;;;;;9.35;6.32;;;10.20;84.80;;;;;;5055000;28;20028;-68
2022/11/27 12:10:20;;;;;;;11.67;6.43;;;10.20;84.00;;;;;;5054228;28;20052;-67
2022/11/27 12:13:01;;;;;;;12.48;6.50;;;10.10;85.50;;;;;;5054439;28;20059;-67
2022/11/27 12:15:37;;;;;;;16.88;7.45;;;10.10;85.80;;;;;;5054693;28;20029;-68
2022/11/27 12:18:15;;;;;;;15.93;7.50;;;10.00;86.10;;;;;;5054590;28;20029;-68
2022/11/27 12:21:15;;;;;;;13.20;6.47;;;10.00;85.60;;;;;;5054463;28;20174;-68
2022/11/27 12:24:10;;;;;;;12.82;6.90;;;9.90;84.80;;;;;;5042482;28;20470;-68
2022/11/27 12:26:38;;;;;;;14.27;6.50;;;9.90;85.20;;;;;;5054624;28;20036;-68
2022/11/27 12:29:22;;;;;;;14.02;7.30;;;9.80;85.40;;;;;;5054756;28;20029;-68
2022/11/27 12:31:55;;;;;;;13.23;6.82;;;9.70;86.10;;;;;;5053605;28;20454;-67
2022/11/27 12:34:23;;;;;;;9.98;6.00;;;9.60;85.60;;;;;;5054469;28;20347;-67
2022/11/27 12:37:28;;;;;;;16.65;6.80;;;9.60;85.80;;;;;;5054032;28;20052;-67
2022/11/27 12:40:15;;;;;;;11.75;5.78;;;9.60;85.70;;;;;;5053708;28;20029;-67
2022/11/27 12:42:44;;;;;;;10.63;6.03;;;9.50;86.00;;;;;;5054027;28;20458;-68
2022/11/27 12:45:21;;;;;;;12.27;5.90;;;9.40;85.40;;;;;;5054694;28;20063;-68
2022/11/27 12:48:00;;;;;;;13.05;5.28;;;9.40;84.30;;;;;;5053749;28;20028;-68
2022/11/27 12:50:44;;;;;;;9.55;4.68;;;9.30;83.40;;;;;;5054522;28;20025;-68
2022/11/27 12:53:13;;;;;;;10.57;4.60;;;9.30;83.00;;;;;;5054795;28;20029;-67
2022/11/27 12:55:44;;;;;;;10.65;5.25;;;9.20;82.80;;;;;;5053828;28;20068;-68
2022/11/27 12:58:21;;;;;;;10.40;5.72;;;9.20;84.60;;;;;;5053785;28;20428;-68